createdAt,value
2018-09-26T00:01:56.199Z,2.10
2018-09-26T00:04:27.896Z,3.33
2018-09-26T00:06:57.192Z,3.00
2018-09-26T00:09:26.153Z,1.93
2018-09-26T00:11:54.867Z,1.80
2018-09-26T00:14:24.893Z,2.67
2018-09-26T00:16:53.623Z,2.80
2018-09-26T00:19:35.618Z,2.20
2018-09-26T00:22:04.499Z,2.63
2018-09-26T00:24:33.483Z,2.00
2018-09-26T00:27:05.440Z,2.10
2018-09-26T00:29:35.345Z,1.63
2018-09-26T00:32:04.018Z,1.90
2018-09-26T00:34:35.947Z,1.90
2018-09-26T00:37:16.976Z,2.03
2018-09-26T00:39:45.648Z,1.60
2018-09-26T00:42:14.026Z,1.60
2018-09-26T00:44:42.566Z,1.57
2018-09-26T00:47:11.905Z,1.70
2018-09-26T00:49:48.994Z,1.70
2018-09-26T00:52:22.019Z,1.30
2018-09-26T00:54:54.291Z,1.63
2018-09-26T00:57:23.356Z,1.50
2018-09-26T00:59:51.803Z,2.27
2018-09-26T01:02:20.495Z,2.13
2018-09-26T01:04:59.759Z,3.37
2018-09-26T01:07:28.470Z,1.70
2018-09-26T01:09:56.662Z,1.70
2018-09-26T01:12:24.842Z,1.63
2018-09-26T01:14:57.042Z,1.70
2018-09-26T01:17:25.904Z,1.37
2018-09-26T01:19:59.515Z,1.60
2018-09-26T01:22:27.975Z,1.70
2018-09-26T01:25:01.154Z,2.33
2018-09-26T01:27:32.935Z,2.00
2018-09-26T01:30:06.519Z,2.30
2018-09-26T01:32:35.081Z,1.90
2018-09-26T01:35:17.714Z,2.57
2018-09-26T01:37:46.415Z,2.43
2018-09-26T01:40:14.903Z,1.73
2018-09-26T01:42:43.087Z,2.67
2018-09-26T01:45:15.344Z,1.73
2018-09-26T01:47:43.491Z,2.23
2018-09-26T01:50:16.576Z,1.60
2018-09-26T01:52:45.288Z,1.63
2018-09-26T01:55:19.389Z,1.80
2018-09-26T01:57:47.516Z,1.57
2018-09-26T02:00:20.853Z,1.80
2018-09-26T02:02:49.315Z,1.80
2018-09-26T02:05:17.754Z,1.80
2018-09-26T02:07:46.162Z,1.80
2018-09-26T02:10:14.293Z,1.90
2018-09-26T02:12:42.759Z,1.83
2018-09-26T02:15:11.523Z,1.80
2018-09-26T02:17:39.987Z,1.87
2018-09-26T02:20:08.138Z,2.03
2018-09-26T02:22:36.538Z,2.10
2018-09-26T02:25:04.809Z,2.00
2018-09-26T02:27:34.792Z,2.30
2018-09-26T02:30:03.323Z,2.07
2018-09-26T02:32:37.148Z,2.20
2018-09-26T02:35:05.383Z,3.00
2018-09-26T02:37:38.119Z,2.47
2018-09-26T02:40:06.646Z,2.40
2018-09-26T02:42:34.797Z,2.67
2018-09-26T02:45:03.568Z,2.37
2018-09-26T02:47:32.019Z,2.93
2018-09-26T02:50:00.471Z,2.40
2018-09-26T02:52:29.212Z,2.87
2018-09-26T02:54:57.348Z,2.13
2018-09-26T02:57:25.836Z,2.47
2018-09-26T02:59:54.251Z,2.70
2018-09-26T03:02:22.379Z,2.67
2018-09-26T03:04:55.720Z,2.70
2018-09-26T03:07:24.416Z,2.30
2018-09-26T03:09:57.807Z,2.23
2018-09-26T03:12:26.266Z,3.50
2018-09-26T03:14:56.180Z,3.17
2018-09-26T03:17:27.681Z,3.97
2018-09-26T03:19:55.839Z,2.80
2018-09-26T03:22:24.283Z,3.93
2018-09-26T03:24:52.683Z,3.10
2018-09-26T03:27:21.108Z,3.40
2018-09-26T03:29:49.527Z,3.70
2018-09-26T03:32:17.935Z,3.33
2018-09-26T03:34:46.445Z,3.30
2018-09-26T03:37:15.103Z,2.70
2018-09-26T03:39:43.847Z,3.03
2018-09-26T03:42:16.870Z,2.40
2018-09-26T03:44:45.002Z,2.53
2018-09-26T03:47:18.454Z,2.30
2018-09-26T03:49:46.891Z,2.30
2018-09-26T03:52:21.107Z,2.10
2018-09-26T03:54:49.502Z,2.50
2018-09-26T03:57:22.666Z,2.77
2018-09-26T03:59:51.119Z,2.13
2018-09-26T04:02:22.970Z,2.17
2018-09-26T04:04:53.046Z,2.07
2018-09-26T04:07:22.171Z,2.43
2018-09-26T04:09:52.072Z,2.40
2018-09-26T04:12:20.981Z,2.47
2018-09-26T04:14:49.440Z,2.10
2018-09-26T04:17:17.876Z,2.20
2018-09-26T04:19:46.327Z,2.57
2018-09-26T04:22:14.788Z,2.50
2018-09-26T04:24:43.187Z,2.30
2018-09-26T04:27:11.699Z,2.00
2018-09-26T04:29:41.019Z,2.67
2018-09-26T04:32:09.482Z,2.33
2018-09-26T04:34:43.083Z,3.00
2018-09-26T04:37:11.539Z,2.83
2018-09-26T04:39:45.997Z,3.53
2018-09-26T04:42:14.179Z,2.60
2018-09-26T04:47:15.459Z,3.67
2018-09-26T04:49:43.599Z,4.23
2018-09-26T04:52:11.727Z,3.73
2018-09-26T04:54:40.435Z,3.00
2018-09-26T04:57:08.876Z,2.70
2018-09-26T04:59:37.031Z,2.67
2018-09-26T05:02:05.486Z,3.00
2018-09-26T05:04:33.725Z,2.27
2018-09-26T05:07:02.656Z,2.90
2018-09-26T05:09:31.065Z,2.77
2018-09-26T05:12:04.368Z,2.90
2018-09-26T05:14:33.008Z,2.83
2018-09-26T05:19:44.856Z,2.30
2018-09-26T05:24:50.828Z,2.40
2018-09-26T05:27:19.186Z,2.57
2018-09-26T05:29:47.953Z,3.40
2018-09-26T05:32:17.103Z,3.47
2018-09-26T05:34:45.263Z,3.70
2018-09-26T05:37:19.439Z,3.47
2018-09-26T05:39:47.689Z,4.03
2018-09-26T05:42:21.270Z,3.93
2018-09-26T05:44:49.715Z,3.83
2018-09-26T05:47:23.803Z,4.20
2018-09-26T05:49:51.938Z,3.40
2018-09-26T05:52:25.818Z,4.60
2018-09-26T05:54:55.215Z,8.30
2018-09-26T05:57:31.623Z,3.60
2018-09-26T05:59:59.808Z,3.83
2018-09-26T06:02:34.590Z,4.43
2018-09-26T06:05:03.055Z,3.60
2018-09-26T06:07:34.842Z,2.23
2018-09-26T06:10:03.023Z,2.70
2018-09-26T06:12:44.242Z,3.93
2018-09-26T06:15:12.423Z,2.23
2018-09-26T06:17:40.603Z,2.20
2018-09-26T06:20:09.039Z,2.00
2018-09-26T06:22:42.570Z,2.10
2018-09-26T06:25:10.919Z,2.70
2018-09-26T06:27:45.901Z,2.10
2018-09-26T06:30:14.364Z,2.10
2018-09-26T06:32:47.602Z,2.50
2018-09-26T06:35:16.324Z,2.93
2018-09-26T06:37:57.434Z,2.03
2018-09-26T06:40:25.987Z,2.20
2018-09-26T06:42:54.156Z,2.40
2018-09-26T06:45:22.344Z,2.60
2018-09-26T06:47:56.333Z,2.30
2018-09-26T06:50:24.515Z,2.20
2018-09-26T06:52:57.833Z,2.10
2018-09-26T06:55:26.256Z,5.13
2018-09-26T06:57:54.748Z,3.33
2018-09-26T07:00:22.977Z,3.07
2018-09-26T07:02:51.689Z,3.00
2018-09-26T07:05:19.873Z,2.70
2018-09-26T07:07:48.041Z,2.27
2018-09-26T07:10:16.494Z,3.50
2018-09-26T07:12:44.685Z,2.60
2018-09-26T07:15:14.532Z,2.00
2018-09-26T07:17:43.298Z,2.13
2018-09-26T07:20:24.180Z,2.03
2018-09-26T07:22:52.927Z,2.50
2018-09-26T07:25:21.116Z,2.40
2018-09-26T07:27:49.598Z,2.00
2018-09-26T07:30:21.804Z,2.53
2018-09-26T07:32:50.327Z,2.67
2018-09-26T07:35:31.601Z,2.57
2018-09-26T07:37:59.823Z,2.53
2018-09-26T07:40:28.300Z,4.10
2018-09-26T07:42:56.499Z,2.40
2018-09-26T07:45:37.975Z,3.03
2018-09-26T07:48:06.361Z,2.83
2018-09-26T07:50:35.172Z,3.57
2018-09-26T07:53:03.372Z,3.00
2018-09-26T07:55:32.857Z,2.70
2018-09-26T07:58:01.864Z,3.43
2018-09-26T08:00:35.665Z,4.10
2018-09-26T08:03:04.205Z,6.37
2018-09-26T08:05:42.487Z,2.43
2018-09-26T08:08:10.984Z,2.87
2018-09-26T08:10:41.945Z,2.60
2018-09-26T08:13:10.089Z,2.93
2018-09-26T08:15:44.185Z,4.70
2018-09-26T08:18:13.197Z,4.30
2018-09-26T08:20:46.317Z,2.80
2018-09-26T08:23:16.048Z,2.40
2018-09-26T08:25:57.891Z,2.70
2018-09-26T08:28:26.624Z,3.20
2018-09-26T08:30:55.180Z,2.90
2018-09-26T08:33:23.672Z,3.03
2018-09-26T08:35:56.668Z,3.00
2018-09-26T08:38:24.832Z,3.33
2018-09-26T08:40:58.060Z,2.80
2018-09-26T08:43:26.578Z,2.90
2018-09-26T08:46:00.323Z,2.63
2018-09-26T08:48:28.573Z,3.17
2018-09-26T08:53:30.536Z,3.93
2018-09-26T08:55:59.080Z,2.90
2018-09-26T08:58:27.709Z,2.57
2018-09-26T09:00:56.234Z,3.07
2018-09-26T09:03:24.656Z,2.70
2018-09-26T09:05:53.234Z,2.30
2018-09-26T09:08:22.995Z,2.40
2018-09-26T09:10:52.029Z,2.20
2018-09-26T09:13:20.216Z,1.67
2018-09-26T09:15:48.816Z,2.23
2018-09-26T09:18:20.231Z,1.97
2018-09-26T09:20:48.689Z,3.10
2018-09-26T09:23:21.995Z,1.93
2018-09-26T09:25:50.760Z,2.03
2018-09-26T09:28:26.528Z,4.17
2018-09-26T09:30:55.087Z,3.83
2018-09-26T09:33:28.048Z,7.80
2018-09-26T09:35:56.216Z,9.87
2018-09-26T09:38:30.743Z,2.17
2018-09-26T09:40:59.264Z,2.43
2018-09-26T09:43:32.599Z,2.50
2018-09-26T09:46:01.584Z,2.47
2018-09-26T09:48:35.227Z,1.77
2018-09-26T09:51:03.398Z,2.60
2018-09-26T09:56:05.697Z,5.10
2018-09-26T09:58:34.149Z,2.20
2018-09-26T10:01:08.345Z,6.77
2018-09-26T10:03:36.806Z,2.00
2018-09-26T10:06:04.976Z,1.50
2018-09-26T10:08:33.425Z,2.47
2018-09-26T10:11:01.953Z,2.93
2018-09-26T10:13:30.986Z,1.77
2018-09-26T10:15:59.778Z,1.60
2018-09-26T10:18:27.942Z,1.70
2018-09-26T10:20:56.439Z,1.53
2018-09-26T10:23:25.703Z,1.47
2018-09-26T10:25:57.846Z,1.73
2018-09-26T10:28:26.023Z,2.50
2018-09-26T10:30:59.974Z,1.97
2018-09-26T10:33:28.464Z,1.80
2018-09-26T10:36:02.291Z,1.87
2018-09-26T10:38:32.041Z,1.80
2018-09-26T10:41:05.139Z,1.90
2018-09-26T10:43:33.674Z,1.87
2018-09-26T10:46:02.470Z,2.63
2018-09-26T10:48:30.667Z,2.00
2018-09-26T10:50:59.179Z,2.87
2018-09-26T10:53:29.518Z,1.90
2018-09-26T10:56:00.656Z,2.50
2018-09-26T10:58:28.848Z,2.13
2018-09-26T11:00:57.344Z,2.23
2018-09-26T11:03:26.046Z,2.27
2018-09-26T11:08:28.152Z,1.60
2018-09-26T11:10:56.630Z,2.30
2018-09-26T11:13:24.800Z,1.57
2018-09-26T11:15:53.365Z,1.87
2018-09-26T11:18:26.787Z,1.83
2018-09-26T11:20:55.296Z,1.67
2018-09-26T11:23:27.181Z,1.90
2018-09-26T11:25:57.160Z,1.93
2018-09-26T11:28:25.395Z,1.47
2018-09-26T11:30:54.300Z,1.80
2018-09-26T11:33:22.888Z,1.63
2018-09-26T11:35:51.071Z,1.50
2018-09-26T11:38:19.616Z,1.70
2018-09-26T11:40:48.165Z,1.57
2018-09-26T11:43:17.556Z,1.73
2018-09-26T11:48:23.647Z,1.60
2018-09-26T11:50:52.259Z,1.43
2018-09-26T11:53:21.880Z,1.83
2018-09-26T11:55:50.953Z,1.30
2018-09-26T11:58:19.986Z,1.60
2018-09-26T12:01:01.298Z,1.73
2018-09-26T12:03:29.634Z,1.60
2018-09-26T12:05:58.191Z,1.83
2018-09-26T12:08:26.678Z,1.60
2018-09-26T12:11:07.783Z,1.70
2018-09-26T12:13:38.607Z,1.73
2018-09-26T12:18:35.057Z,1.90
2018-09-26T12:21:05.474Z,1.67
2018-09-26T12:23:33.792Z,1.50
2018-09-26T12:26:08.129Z,1.50
2018-09-26T12:28:36.540Z,1.30
2018-09-26T12:33:37.532Z,1.73
2018-09-26T12:38:39.040Z,1.60
2018-09-26T12:41:07.623Z,1.40
2018-09-26T12:43:36.101Z,1.70
2018-09-26T12:46:04.746Z,1.80
2018-09-26T12:48:33.275Z,1.83
2018-09-26T12:51:01.681Z,1.70
2018-09-26T12:53:30.196Z,1.47
2018-09-26T12:55:58.393Z,1.83
2018-09-26T12:58:27.196Z,2.03
2018-09-26T13:00:55.795Z,2.00
2018-09-26T13:03:25.885Z,1.70
2018-09-26T13:05:54.333Z,1.50
2018-09-26T13:08:27.924Z,2.47
2018-09-26T13:10:56.117Z,1.70
2018-09-26T13:13:24.606Z,1.70
2018-09-26T13:15:52.768Z,1.90
2018-09-26T13:18:21.568Z,1.87
2018-09-26T13:20:51.502Z,2.13
2018-09-26T13:23:20.060Z,1.80
2018-09-26T13:25:48.652Z,2.63
2018-09-26T13:28:17.123Z,1.83
2018-09-26T13:30:45.463Z,1.90
2018-09-26T13:33:13.658Z,1.87
2018-09-26T13:35:45.665Z,2.67
2018-09-26T13:38:14.693Z,1.70
2018-09-26T13:40:49.891Z,1.70
2018-09-26T13:43:18.404Z,1.97
2018-09-26T13:45:51.164Z,2.43
2018-09-26T13:48:19.633Z,2.30
2018-09-26T13:50:52.973Z,1.93
2018-09-26T13:53:21.471Z,1.87
2018-09-26T13:58:22.691Z,2.40
2018-09-26T14:00:51.856Z,1.90
2018-09-26T14:03:20.103Z,2.30
2018-09-26T14:05:48.341Z,2.43
2018-09-26T14:08:16.796Z,2.20
2018-09-26T14:10:45.061Z,2.27
2018-09-26T14:13:16.890Z,2.30
2018-09-26T14:15:45.443Z,2.70
2018-09-26T14:18:13.618Z,2.10
2018-09-26T14:20:42.146Z,2.00
2018-09-26T14:23:13.912Z,1.80
2018-09-26T14:25:42.397Z,1.70
2018-09-26T14:28:16.557Z,2.30
2018-09-26T14:30:45.388Z,2.57
2018-09-26T14:33:18.634Z,1.80
2018-09-26T14:35:47.067Z,2.20
2018-09-26T14:38:21.128Z,2.00
2018-09-26T14:40:49.674Z,2.27
2018-09-26T14:43:24.011Z,2.17
2018-09-26T14:45:52.896Z,2.20
2018-09-26T14:48:26.526Z,2.20
2018-09-26T14:50:55.068Z,2.57
2018-09-26T14:53:29.174Z,2.07
2018-09-26T14:55:57.633Z,2.07
2018-09-26T14:58:31.903Z,2.23
2018-09-26T15:01:00.564Z,2.50
2018-09-26T15:03:37.440Z,2.40
2018-09-26T15:06:06.206Z,2.17
2018-09-26T15:08:38.424Z,2.03
2018-09-26T15:11:06.900Z,2.50
2018-09-26T15:13:40.008Z,2.20
2018-09-26T15:16:08.283Z,2.20
2018-09-26T15:18:41.851Z,2.10
2018-09-26T15:21:10.721Z,2.20
2018-09-26T15:26:15.876Z,2.33
2018-09-26T15:28:57.398Z,2.27
2018-09-26T15:31:25.968Z,2.40
2018-09-26T15:33:54.175Z,2.43
2018-09-26T15:36:22.831Z,2.40
2018-09-26T15:38:55.052Z,2.00
2018-09-26T15:41:23.289Z,2.20
2018-09-26T15:44:04.310Z,2.70
2018-09-26T15:46:32.507Z,2.13
2018-09-26T15:49:02.401Z,2.70
2018-09-26T15:51:30.824Z,2.70
2018-09-26T15:54:05.189Z,2.80
2018-09-26T15:56:33.878Z,2.43
2018-09-26T15:59:07.884Z,3.27
2018-09-26T16:01:36.435Z,2.43
2018-09-26T16:04:10.512Z,2.33
2018-09-26T16:06:38.764Z,2.83
2018-09-26T16:09:12.218Z,2.40
2018-09-26T16:11:40.733Z,2.40
2018-09-26T16:14:14.135Z,2.40
2018-09-26T16:16:42.336Z,2.40
2018-09-26T16:19:10.546Z,2.40
2018-09-26T16:21:39.074Z,2.30
2018-09-26T16:24:08.772Z,3.03
2018-09-26T16:26:37.417Z,2.57
2018-09-26T16:31:33.748Z,2.63
2018-09-26T16:34:01.964Z,2.37
2018-09-26T16:36:30.554Z,2.63
2018-09-26T16:38:59.613Z,2.30
2018-09-26T16:41:30.021Z,2.23
2018-09-26T16:43:58.635Z,2.10
2018-09-26T16:46:32.228Z,2.60
2018-09-26T16:49:00.736Z,2.00
2018-09-26T16:51:34.962Z,1.80
2018-09-26T16:54:04.601Z,2.73
2018-09-26T16:56:38.219Z,2.13
2018-09-26T16:59:06.833Z,2.07
2018-09-26T17:01:44.038Z,2.07
2018-09-26T17:04:12.871Z,2.13
2018-09-26T17:06:42.887Z,2.47
2018-09-26T17:09:11.740Z,2.70
2018-09-26T17:11:46.937Z,8.63
2018-09-26T17:14:19.258Z,3.87
2018-09-26T17:16:49.851Z,5.83
2018-09-26T17:19:18.408Z,4.03
2018-09-26T17:21:51.540Z,3.97
2018-09-26T17:24:20.425Z,5.13
2018-09-26T17:26:53.511Z,4.23
2018-09-26T17:29:22.049Z,3.80
2018-09-26T17:31:56.713Z,3.50
2018-09-26T17:34:25.366Z,4.30
2018-09-26T17:39:35.855Z,3.57
2018-09-26T17:42:04.172Z,3.63
2018-09-26T17:44:32.616Z,4.17
2018-09-26T17:47:06.977Z,3.80
2018-09-26T17:49:35.319Z,4.43
2018-09-26T17:52:11.416Z,4.53
2018-09-26T17:54:39.908Z,5.03
2018-09-26T17:57:21.523Z,5.03
2018-09-26T17:59:50.107Z,3.77
2018-09-26T18:02:18.956Z,3.37
2018-09-26T18:04:47.520Z,3.27
2018-09-26T18:07:17.625Z,3.80
2018-09-26T18:09:46.542Z,3.43
2018-09-26T18:12:22.369Z,3.90
2018-09-26T18:14:50.874Z,3.87
2018-09-26T18:17:32.361Z,3.27
2018-09-26T18:20:00.856Z,3.33
2018-09-26T18:22:29.276Z,4.03
2018-09-26T18:24:57.947Z,3.33
2018-09-26T18:27:28.237Z,3.67
2018-09-26T18:29:56.736Z,2.90
2018-09-26T18:32:38.091Z,3.87
2018-09-26T18:35:06.615Z,2.97
2018-09-26T18:37:35.142Z,3.17
2018-09-26T18:40:07.941Z,3.23
2018-09-26T18:42:37.100Z,3.63
2018-09-26T18:45:05.385Z,12.03
2018-09-26T18:47:41.868Z,25.37
2018-09-26T18:50:10.787Z,6.87
2018-09-26T18:52:41.747Z,3.70
2018-09-26T18:55:09.938Z,6.23
2018-09-26T18:57:43.507Z,5.10
2018-09-26T19:00:11.670Z,3.67
2018-09-26T19:02:44.674Z,5.53
2018-09-26T19:05:13.296Z,7.80
2018-09-26T19:07:41.569Z,6.90
2018-09-26T19:10:10.157Z,7.93
2018-09-26T19:12:39.022Z,6.13
2018-09-26T19:15:07.247Z,13.00
2018-09-26T19:17:35.364Z,7.07
2018-09-26T19:20:03.927Z,7.33
2018-09-26T19:22:33.554Z,5.73
2018-09-26T19:25:02.236Z,9.63
2018-09-26T19:27:30.869Z,7.40
2018-09-26T19:30:02.572Z,13.07
2018-09-26T19:32:31.133Z,6.83
2018-09-26T19:35:05.727Z,6.67
2018-09-26T19:37:34.204Z,6.93
2018-09-26T19:40:08.170Z,5.50
2018-09-26T19:42:36.325Z,6.47
2018-09-26T19:45:05.034Z,7.00
2018-09-26T19:47:33.429Z,8.23
2018-09-26T19:50:01.876Z,6.80
2018-09-26T19:52:30.430Z,5.97
2018-09-26T19:54:58.841Z,6.07
2018-09-26T19:57:27.344Z,4.93
2018-09-26T19:59:55.881Z,7.57
2018-09-26T20:02:24.059Z,6.67
2018-09-26T20:04:52.556Z,6.93
2018-09-26T20:07:24.904Z,5.30
2018-09-26T20:09:53.812Z,4.20
2018-09-26T20:12:27.993Z,4.93
2018-09-26T20:14:56.572Z,4.23
2018-09-26T20:17:29.188Z,5.97
2018-09-26T20:19:57.796Z,6.13
2018-09-26T20:22:30.909Z,12.67
2018-09-26T20:24:59.400Z,15.53
2018-09-26T20:27:33.074Z,10.67
2018-09-26T20:30:01.807Z,10.53
2018-09-26T20:32:31.576Z,10.07
2018-09-26T20:37:38.984Z,7.43
2018-09-26T20:40:07.245Z,7.57
2018-09-26T20:42:41.849Z,6.93
2018-09-26T20:45:10.668Z,6.67
2018-09-26T20:47:42.864Z,5.23
2018-09-26T20:50:11.405Z,6.70
2018-09-26T20:52:42.320Z,6.13
2018-09-26T20:55:13.196Z,5.50
2018-09-26T20:57:41.439Z,6.10
2018-09-26T21:00:10.852Z,5.00
2018-09-26T21:02:39.045Z,6.70
2018-09-26T21:05:07.853Z,5.30
2018-09-26T21:07:36.151Z,5.20
2018-09-26T21:10:04.484Z,5.17
2018-09-26T21:12:32.616Z,4.90
2018-09-26T21:15:01.039Z,4.90
2018-09-26T21:17:29.392Z,5.10
2018-09-26T21:20:03.337Z,4.40
2018-09-26T21:22:31.770Z,5.40
2018-09-26T21:25:04.468Z,5.23
2018-09-26T21:27:32.922Z,5.50
2018-09-26T21:30:01.096Z,5.20
2018-09-26T21:32:29.236Z,5.47
2018-09-26T21:34:57.692Z,5.43
2018-09-26T21:37:26.538Z,5.97
2018-09-26T21:39:54.744Z,5.47
2018-09-26T21:42:23.149Z,5.67
2018-09-26T21:44:51.991Z,5.87
2018-09-26T21:47:20.591Z,4.77
2018-09-26T21:49:49.076Z,5.03
2018-09-26T21:52:21.795Z,4.87
2018-09-26T21:54:50.279Z,4.60
2018-09-26T21:57:24.564Z,7.03
2018-09-26T21:59:53.417Z,4.87
2018-09-26T22:02:35.056Z,4.63
2018-09-26T22:05:03.542Z,4.67
2018-09-26T22:07:32.024Z,5.07
2018-09-26T22:10:01.205Z,5.40
2018-09-26T22:12:31.827Z,6.50
2018-09-26T22:15:00.251Z,5.57
2018-09-26T22:17:33.727Z,4.77
2018-09-26T22:20:02.524Z,5.30
2018-09-26T22:22:35.880Z,4.47
2018-09-26T22:25:04.486Z,3.77
2018-09-26T22:27:37.939Z,3.90
2018-09-26T22:30:06.704Z,4.13
2018-09-26T22:32:39.763Z,3.67
2018-09-26T22:35:08.551Z,4.23
2018-09-26T22:37:36.905Z,4.10
2018-09-26T22:40:05.063Z,10.83
2018-09-26T22:42:33.593Z,4.40
2018-09-26T22:45:01.865Z,3.73
2018-09-26T22:47:30.431Z,3.87
2018-09-26T22:49:59.072Z,4.80
2018-09-26T22:52:27.699Z,5.20
2018-09-26T22:54:56.186Z,6.63
2018-09-26T22:57:24.692Z,7.83
2018-09-26T22:59:58.015Z,7.73
2018-09-26T23:02:26.192Z,5.30
2018-09-26T23:04:59.996Z,7.83
2018-09-26T23:07:28.476Z,5.40
2018-09-26T23:12:30.337Z,4.33
2018-09-26T23:14:58.783Z,4.90
2018-09-26T23:17:26.934Z,5.87
2018-09-26T23:19:55.663Z,4.60
2018-09-26T23:22:24.124Z,4.70
2018-09-26T23:24:52.271Z,4.93
2018-09-26T23:27:21.016Z,4.10
2018-09-26T23:29:49.195Z,4.50
2018-09-26T23:32:19.061Z,4.47
2018-09-26T23:34:47.954Z,4.27
2018-09-26T23:37:19.901Z,3.73
2018-09-26T23:39:48.087Z,3.87
2018-09-26T23:42:21.724Z,4.10
2018-09-26T23:44:49.870Z,5.20
2018-09-26T23:47:23.306Z,4.73
2018-09-26T23:49:51.861Z,6.17
2018-09-26T23:54:52.891Z,7.47
2018-09-26T23:57:21.619Z,6.37
2018-09-26T23:59:49.779Z,4.00
